Detall de PIREP

Printer-friendly versionPDF version

[2013/02/20 10:27:00]
Flight IATA:CT0001
Pilot Number:042
Company ICAO:CAT
Aircraft Type:B738/F
PAX:85
Departing Airport: LEAL
Destination Airport: LEBL
Alternate Airport:LEPA
Online: VATSIM
Route:SOPET UN608 MATEX
Flight Level:F300
No Slew and time accel
No pause
Crash detect
Detect pilot in Cockpit between each 30 and 45 minutes
10:27 Zero fuel Weight: 115600 Lbs, Fuel Weight: 46042 Lbs
10:27 VATSIM:LEAL 201000Z VRB02KT CAVOK 14/07 Q1015 NOSIG
10:27 VATSIM:LEBL 201000Z 34008KT 300V020 9999 FEW024 12/06 Q1013 NOSIG
10:27 VOICE CATALONIAN
10:37 Parking Brakes off
10:45 Take-off
10:45 Take off Weight: 160846 Lbs
10:45 Wind: 193º @ 004 Knots Heading: 101º
10:45 POS N38º 16´ 47´´ W000º 32´ 33´´
10:45 Gear Up: 178 Knots
10:45 Flaps:5 at 178 Knots
10:45 Flaps:4 at 177 Knots
10:45 Flaps:3 at 168 Knots
10:46 Flaps:2 at 171 Knots
10:46 Flaps:1 at 178 Knots
10:46 Flaps:0 at 186 Knots
11:00 Wind:302º@044 Knots Heading: 348º Ground Speed: 428 Knots Altitude 27660 ft
11:01 TOC
11:01 Fuel Weight: 41534 Lb
11:12 TOD
11:12 Fuel Weight: 40348 Lb
11:15 Wind:311º@049 Knots Heading: 042º Ground Speed: 422 Knots Altitude 25213 ft
11:27 Flaps:1 at 226 Knots
11:28 Flaps:2 at 226 Knots
11:29 Flaps:3 at 202 Knots
11:29 Flaps:4 at 189 Knots
11:30 Wind:269º@005 Knots Heading: 243º Ground Speed: 171 Knots Altitude 2709 ft
11:31 Gear Down: 175 Knots
11:31 Flaps:5 at 175 Knots
11:31 Flaps:6 at 168 Knots
11:31 Flaps:7 at 163 Knots
11:31 Flaps:8 at 150 Knots
11:34 TouchDown:Rate -272 ft/min Speed: 134 Knots
11:34 VATSIM:LEBL 201100Z 27003KT 210V320 9999 FEW024 13/06 Q1013 NOSIG
11:34 Land
11:34 Wind:212º@003 Knots
11:34 Heading: 244º
11:34 Flight Duration: 00:49
11:34 Landing Weight: 154736 Lbs
11:34 POS N41º 18´ 00´´ E002º 05´ 15´´
11:38 Parking brakes on
11:38 Block to Block Duration: 01:01
11:38 Final Fuel: 38796 Lbls
11:38 Spent Fuel: 7246 Lbls
11:38 Flight Length: 285 NM
11:38 TOD Land Length: 110 NM

Exportar CSV

Powered by Drupal - Modified by Danger4k